Time;durP1;ratioP1;P1;durP2;ratioP2;P2;SDS_P1;SDS_P2;PMS_P1;PMS_P2;Temp;Humidity;BMP_temperature;BMP_pressure;BME280_temperature;BME280_humidity;BME280_pressure;Samples;Min_cycle;Max_cycle;Signal;HPM_P1;HPM_P2
2023/02/25 00:00:52;;;;;;;0.43;0.43;;;;;;;;;;4982156;28;20037;-77
2023/02/25 00:03:19;;;;;;;0.40;0.40;;;;;;;;;;4982419;28;20035;-76
2023/02/25 00:05:45;;;;;;;2.55;0.70;;;;;;;;;;4988041;28;20042;-77
2023/02/25 00:08:11;;;;;;;0.38;0.38;;;;;;;;;;4986890;28;20029;-77
2023/02/25 00:10:36;;;;;;;0.50;0.40;;;;;;;;;;4983197;28;20134;-77
2023/02/25 00:13:08;;;;;;;2.90;0.80;;;;;;;;;;4987261;28;20516;-77
2023/02/25 00:15:40;;;;;;;0.63;0.63;;;;;;;;;;4987583;28;20026;-77
2023/02/25 00:18:06;;;;;;;5.25;0.70;;;;;;;;;;4983347;28;20379;-77
2023/02/25 00:20:32;;;;;;;0.43;0.35;;;;;;;;;;4983708;28;20042;-77
2023/02/25 00:22:58;;;;;;;0.40;0.40;;;;;;;;;;4986147;28;20034;-77
2023/02/25 00:25:27;;;;;;;0.68;0.55;;;;;;;;;;4986289;28;20113;-76
2023/02/25 00:28:14;;;;;;;1.55;0.80;;;;;;;;;;4985109;28;20034;-77
2023/02/25 00:30:41;;;;;;;0.50;0.50;;;;;;;;;;4980513;28;20035;-77
2023/02/25 00:33:07;;;;;;;0.47;0.47;;;;;;;;;;4985973;28;20477;-77
2023/02/25 00:35:33;;;;;;;0.73;0.50;;;;;;;;;;4986697;28;20031;-77
2023/02/25 00:37:59;;;;;;;0.63;0.43;;;;;;;;;;4985461;28;20081;-77
2023/02/25 00:40:25;;;;;;;0.63;0.43;;;;;;;;;;4985841;28;20022;-77
2023/02/25 00:42:52;;;;;;;2.03;0.52;;;;;;;;;;4981941;28;20033;-77
2023/02/25 00:45:18;;;;;;;1.95;0.70;;;;;;;;;;4985638;28;20037;-78
2023/02/25 00:47:43;;;;;;;3.35;0.68;;;;;;;;;;4986470;28;20034;-77
2023/02/25 00:50:10;;;;;;;0.40;0.40;;;;;;;;;;4975313;28;20046;-77
2023/02/25 00:52:37;;;;;;;0.40;0.32;;;;;;;;;;4978678;28;20117;-77
2023/02/25 00:55:04;;;;;;;0.75;0.60;;;;;;;;;;4983686;28;20052;-77
2023/02/25 00:57:30;;;;;;;0.22;0.22;;;;;;;;;;4982117;28;20042;-77
2023/02/25 00:59:56;;;;;;;0.40;0.40;;;;;;;;;;4985812;28;20037;-77
2023/02/25 01:02:25;;;;;;;0.75;0.55;;;;;;;;;;4984394;28;20063;-77
2023/02/25 01:04:51;;;;;;;1.02;0.50;;;;;;;;;;4984603;28;20065;-77
2023/02/25 01:07:17;;;;;;;3.05;0.40;;;;;;;;;;4984933;28;20039;-77
2023/02/25 01:09:46;;;;;;;1.20;0.50;;;;;;;;;;4988232;28;20024;-77
2023/02/25 01:12:11;;;;;;;0.60;0.30;;;;;;;;;;4984405;28;20058;-77
2023/02/25 01:14:37;;;;;;;1.02;0.55;;;;;;;;;;4986820;28;20036;-77
2023/02/25 01:17:03;;;;;;;0.20;0.20;;;;;;;;;;4988180;28;20035;-77
2023/02/25 01:19:35;;;;;;;0.30;0.30;;;;;;;;;;4990363;28;20041;-76
2023/02/25 01:22:01;;;;;;;0.55;0.30;;;;;;;;;;4987993;28;20035;-76
2023/02/25 01:24:29;;;;;;;1.23;0.57;;;;;;;;;;4988688;28;20603;-77
2023/02/25 01:26:57;;;;;;;0.35;0.35;;;;;;;;;;4992558;28;20088;-77
2023/02/25 01:29:28;;;;;;;0.85;0.40;;;;;;;;;;4986742;28;20088;-77
2023/02/25 01:31:57;;;;;;;0.30;0.30;;;;;;;;;;4985477;28;20065;-76
2023/02/25 01:34:23;;;;;;;1.13;0.40;;;;;;;;;;4983058;28;20487;-76
2023/02/25 01:36:49;;;;;;;0.40;0.40;;;;;;;;;;4988487;28;20036;-76
2023/02/25 01:39:20;;;;;;;3.88;0.60;;;;;;;;;;4985553;28;20378;-77
2023/02/25 01:41:47;;;;;;;0.40;0.38;;;;;;;;;;4985282;28;20026;-78
2023/02/25 01:44:21;;;;;;;0.70;0.35;;;;;;;;;;4987697;28;20045;-77
2023/02/25 01:46:48;;;;;;;0.55;0.30;;;;;;;;;;4989941;28;20724;-77
2023/02/25 01:49:23;;;;;;;0.20;0.20;;;;;;;;;;4985396;28;20031;-76
2023/02/25 01:51:51;;;;;;;1.10;0.68;;;;;;;;;;4983855;28;20087;-78
2023/02/25 01:54:18;;;;;;;0.40;0.10;;;;;;;;;;4986570;28;21146;-77
2023/02/25 01:56:47;;;;;;;4.03;0.40;;;;;;;;;;4987170;28;20038;-76
2023/02/25 01:59:13;;;;;;;0.47;0.40;;;;;;;;;;4987692;28;20473;-76
2023/02/25 02:01:39;;;;;;;0.55;0.38;;;;;;;;;;4983961;28;20037;-76
2023/02/25 02:04:08;;;;;;;0.30;0.30;;;;;;;;;;4988245;28;20033;-77
2023/02/25 02:06:37;;;;;;;0.13;0.13;;;;;;;;;;4985579;28;20042;-77
2023/02/25 02:09:05;;;;;;;3.63;0.45;;;;;;;;;;4985786;28;20022;-77
2023/02/25 02:11:31;;;;;;;0.50;0.30;;;;;;;;;;4987684;28;20432;-77
2023/02/25 02:13:58;;;;;;;0.32;0.32;;;;;;;;;;4981716;28;20030;-76
2023/02/25 02:16:27;;;;;;;0.30;0.30;;;;;;;;;;4988237;28;20030;-77
2023/02/25 02:18:58;;;;;;;0.13;0.13;;;;;;;;;;4989191;28;20026;-76
2023/02/25 02:21:33;;;;;;;0.20;0.20;;;;;;;;;;4989097;28;20117;-76
2023/02/25 02:24:16;;;;;;;0.65;0.20;;;;;;;;;;4981051;28;20034;-77
2023/02/25 02:26:49;;;;;;;0.10;0.10;;;;;;;;;;4986513;28;20069;-76
2023/02/25 02:29:38;;;;;;;1.45;0.40;;;;;;;;;;4986677;28;20077;-77
2023/02/25 02:32:09;;;;;;;0.43;0.30;;;;;;;;;;4977722;28;20042;-78
2023/02/25 02:34:43;;;;;;;0.40;0.30;;;;;;;;;;4986607;28;20096;-78
2023/02/25 02:37:23;;;;;;;0.20;0.20;;;;;;;;;;4981938;28;20031;-78
2023/02/25 02:39:54;;;;;;;0.30;0.30;;;;;;;;;;4989413;28;20030;-78
2023/02/25 02:42:35;;;;;;;0.20;0.20;;;;;;;;;;4984405;28;20037;-78
2023/02/25 02:45:04;;;;;;;0.20;0.20;;;;;;;;;;4986881;28;20054;-77
2023/02/25 02:47:35;;;;;;;0.52;0.28;;;;;;;;;;4983060;28;20471;-75
2023/02/25 02:50:08;;;;;;;0.10;0.10;;;;;;;;;;4986087;28;20025;-77
2023/02/25 02:52:37;;;;;;;0.47;0.30;;;;;;;;;;4984801;28;20117;-77
2023/02/25 02:55:06;;;;;;;0.20;0.20;;;;;;;;;;4988048;28;20092;-77
2023/02/25 02:57:33;;;;;;;0.28;0.25;;;;;;;;;;4984866;28;20500;-77
2023/02/25 03:00:01;;;;;;;0.15;0.15;;;;;;;;;;4983025;28;20389;-77
2023/02/25 03:02:30;;;;;;;2.83;0.43;;;;;;;;;;4982717;28;20515;-77
2023/02/25 03:04:59;;;;;;;0.30;0.30;;;;;;;;;;4985239;28;20034;-76
2023/02/25 03:07:25;;;;;;;0.20;0.20;;;;;;;;;;4986719;28;20053;-77
2023/02/25 03:09:53;;;;;;;0.20;0.20;;;;;;;;;;4987031;28;20738;-76
2023/02/25 03:12:19;;;;;;;0.10;0.10;;;;;;;;;;4988348;28;20030;-77
2023/02/25 03:14:45;;;;;;;0.40;0.20;;;;;;;;;;4986733;28;20808;-76
2023/02/25 03:17:13;;;;;;;0.38;0.28;;;;;;;;;;4984769;28;20031;-76
2023/02/25 03:19:42;;;;;;;0.20;0.20;;;;;;;;;;4983803;28;20477;-77
2023/02/25 03:22:10;;;;;;;0.20;0.20;;;;;;;;;;4986576;28;20049;-76
2023/02/25 03:25:28;;;;;;;;;;;;;;;;;;;;;
2023/02/25 03:28:01;;;;;;;0.10;0.10;;;;;;;;;;4957895;28;20041;-77
2023/02/25 03:30:31;;;;;;;1.05;0.22;;;;;;;;;;4982110;28;20489;-76
2023/02/25 03:32:59;;;;;;;0.10;0.10;;;;;;;;;;4985493;28;20033;-77
2023/02/25 03:35:25;;;;;;;0.20;0.20;;;;;;;;;;4985742;28;20488;-77
2023/02/25 03:37:53;;;;;;;0.55;0.20;;;;;;;;;;4985318;28;20034;-78
2023/02/25 03:40:20;;;;;;;0.17;0.10;;;;;;;;;;4985135;28;20049;-78
2023/02/25 03:42:50;;;;;;;0.10;0.10;;;;;;;;;;4981862;28;20034;-78
2023/02/25 03:45:16;;;;;;;1.20;0.40;;;;;;;;;;4986711;28;20061;-78
2023/02/25 03:47:42;;;;;;;0.20;0.20;;;;;;;;;;4986589;28;20053;-78
2023/02/25 03:50:14;;;;;;;0.57;0.30;;;;;;;;;;4981226;28;20105;-77
2023/02/25 03:52:41;;;;;;;0.13;0.13;;;;;;;;;;4985909;28;20045;-77
2023/02/25 03:55:08;;;;;;;0.22;0.20;;;;;;;;;;4982897;28;20507;-77
2023/02/25 03:57:38;;;;;;;0.15;0.15;;;;;;;;;;4988030;28;20031;-77
2023/02/25 04:00:14;;;;;;;0.15;0.15;;;;;;;;;;4986352;28;20030;-78
2023/02/25 04:02:40;;;;;;;0.17;0.17;;;;;;;;;;4980089;28;20031;-77
2023/02/25 04:05:08;;;;;;;0.38;0.20;;;;;;;;;;4985404;28;20401;-77
2023/02/25 04:07:34;;;;;;;0.20;0.20;;;;;;;;;;4981911;28;20551;-77
2023/02/25 04:10:00;;;;;;;0.10;0.10;;;;;;;;;;4979835;28;20042;-77
2023/02/25 04:12:26;;;;;;;0.85;0.30;;;;;;;;;;4984400;28;20023;-77
2023/02/25 04:14:52;;;;;;;0.20;0.20;;;;;;;;;;4987493;28;20034;-78
2023/02/25 04:17:18;;;;;;;1.02;0.40;;;;;;;;;;4982340;28;20027;-77
2023/02/25 04:19:44;;;;;;;0.17;0.17;;;;;;;;;;4985991;28;20081;-77
2023/02/25 04:22:10;;;;;;;0.10;0.10;;;;;;;;;;4978636;28;20080;-77
2023/02/25 04:24:36;;;;;;;0.20;0.20;;;;;;;;;;4986877;28;20489;-77
2023/02/25 04:27:02;;;;;;;0.20;0.20;;;;;;;;;;4983486;28;20556;-77
2023/02/25 04:29:28;;;;;;;0.30;0.30;;;;;;;;;;4987913;28;20225;-77
2023/02/25 04:31:54;;;;;;;0.10;0.10;;;;;;;;;;4982829;28;20030;-78
2023/02/25 04:34:20;;;;;;;0.50;0.50;;;;;;;;;;4983825;28;20023;-78
2023/02/25 04:36:47;;;;;;;0.20;0.20;;;;;;;;;;4984229;28;20030;-78
2023/02/25 04:39:14;;;;;;;0.10;0.10;;;;;;;;;;4982627;28;20038;-78
2023/02/25 04:41:40;;;;;;;0.55;0.20;;;;;;;;;;4981025;28;20048;-78
2023/02/25 04:44:07;;;;;;;0.00;0.00;;;;;;;;;;4977826;28;20037;-77
2023/02/25 04:46:34;;;;;;;0.10;0.10;;;;;;;;;;4988362;28;20121;-78
2023/02/25 04:49:00;;;;;;;0.10;0.10;;;;;;;;;;4989947;28;20034;-79
2023/02/25 04:51:26;;;;;;;0.15;0.15;;;;;;;;;;4987957;28;20042;-77
2023/02/25 04:53:52;;;;;;;0.70;0.20;;;;;;;;;;4983528;28;20113;-78
2023/02/25 04:56:18;;;;;;;0.15;0.15;;;;;;;;;;4982413;28;20023;-77
2023/02/25 04:58:44;;;;;;;0.05;0.05;;;;;;;;;;4983786;28;20035;-77
2023/02/25 05:01:11;;;;;;;0.10;0.10;;;;;;;;;;4968143;28;20117;-77
2023/02/25 05:03:42;;;;;;;0.22;0.13;;;;;;;;;;4988840;28;20030;-77
2023/02/25 05:06:08;;;;;;;0.65;0.15;;;;;;;;;;4987294;28;20054;-77
2023/02/25 05:08:35;;;;;;;0.10;0.10;;;;;;;;;;4987164;28;20484;-77
2023/02/25 05:11:02;;;;;;;0.10;0.10;;;;;;;;;;4986902;28;20022;-77
2023/02/25 05:13:28;;;;;;;0.10;0.10;;;;;;;;;;4988297;28;20019;-77
2023/02/25 05:16:04;;;;;;;0.17;0.17;;;;;;;;;;4990001;28;20042;-78
2023/02/25 05:18:30;;;;;;;0.05;0.00;;;;;;;;;;4986194;28;20049;-78
2023/02/25 05:20:56;;;;;;;0.52;0.15;;;;;;;;;;4983521;28;20018;-77
2023/02/25 05:23:25;;;;;;;5.05;0.73;;;;;;;;;;4989371;28;20481;-77
2023/02/25 05:25:51;;;;;;;0.10;0.10;;;;;;;;;;4988809;28;20038;-77
2023/02/25 05:28:17;;;;;;;0.00;0.00;;;;;;;;;;4986626;28;20068;-77
2023/02/25 05:30:43;;;;;;;0.17;0.15;;;;;;;;;;4985827;28;20030;-77
2023/02/25 05:33:09;;;;;;;0.20;0.20;;;;;;;;;;4983446;28;20053;-77
2023/02/25 05:35:38;;;;;;;0.20;0.20;;;;;;;;;;4989281;28;20085;-78
2023/02/25 05:38:04;;;;;;;0.10;0.10;;;;;;;;;;4987237;28;20394;-77
2023/02/25 05:40:31;;;;;;;0.10;0.10;;;;;;;;;;4987742;28;20031;-78
2023/02/25 05:42:57;;;;;;;0.10;0.10;;;;;;;;;;4980543;28;20037;-79
2023/02/25 05:45:23;;;;;;;0.10;0.10;;;;;;;;;;4985103;28;20022;-78
2023/02/25 05:47:48;;;;;;;0.10;0.10;;;;;;;;;;4985631;28;20037;-77
2023/02/25 05:50:14;;;;;;;0.10;0.10;;;;;;;;;;4982413;28;20018;-77
2023/02/25 05:52:40;;;;;;;0.05;0.05;;;;;;;;;;4988662;28;20029;-78
2023/02/25 05:55:08;;;;;;;0.45;0.20;;;;;;;;;;4987315;28;20474;-77
2023/02/25 05:57:34;;;;;;;0.10;0.10;;;;;;;;;;4988563;28;20043;-78
2023/02/25 06:00:00;;;;;;;0.20;0.20;;;;;;;;;;4983117;28;20030;-77
2023/02/25 06:02:26;;;;;;;0.10;0.10;;;;;;;;;;4982382;28;20023;-78
2023/02/25 06:04:55;;;;;;;0.15;0.15;;;;;;;;;;4986468;28;20031;-78
2023/02/25 06:07:21;;;;;;;0.15;0.10;;;;;;;;;;4988470;28;20056;-77
2023/02/25 06:09:47;;;;;;;0.15;0.15;;;;;;;;;;4987588;28;20030;-77
2023/02/25 06:12:13;;;;;;;0.13;0.13;;;;;;;;;;4986926;28;20038;-77
2023/02/25 06:14:39;;;;;;;0.20;0.20;;;;;;;;;;4987803;28;20031;-78
2023/02/25 06:17:05;;;;;;;0.10;0.10;;;;;;;;;;4988171;28;20112;-78
2023/02/25 06:19:34;;;;;;;0.10;0.10;;;;;;;;;;4985781;28;20030;-77
2023/02/25 06:22:00;;;;;;;0.20;0.20;;;;;;;;;;4977620;28;20117;-78
2023/02/25 06:24:26;;;;;;;0.00;0.00;;;;;;;;;;4989853;28;20041;-78
2023/02/25 06:26:52;;;;;;;0.30;0.30;;;;;;;;;;4985022;28;20034;-78
2023/02/25 06:29:18;;;;;;;0.10;0.10;;;;;;;;;;4987208;28;20490;-78
2023/02/25 06:31:44;;;;;;;0.10;0.10;;;;;;;;;;4986141;28;20046;-78
2023/02/25 06:34:10;;;;;;;0.22;0.10;;;;;;;;;;4981663;28;20405;-77
2023/02/25 06:36:36;;;;;;;0.10;0.10;;;;;;;;;;4983921;28;20046;-78
2023/02/25 06:39:01;;;;;;;0.10;0.10;;;;;;;;;;4986407;28;20030;-78
2023/02/25 06:41:27;;;;;;;0.10;0.10;;;;;;;;;;4988554;28;20029;-78
2023/02/25 06:44:02;;;;;;;0.50;0.25;;;;;;;;;;4982006;28;20026;-78
2023/02/25 06:46:28;;;;;;;0.00;0.00;;;;;;;;;;4983671;28;20113;-78
2023/02/25 06:48:54;;;;;;;0.10;0.10;;;;;;;;;;4987047;28;20413;-78
2023/02/25 06:51:20;;;;;;;0.10;0.10;;;;;;;;;;4985195;28;20513;-79
2023/02/25 06:53:46;;;;;;;0.10;0.10;;;;;;;;;;4987556;28;20503;-78
2023/02/25 06:56:14;;;;;;;0.10;0.10;;;;;;;;;;4985438;28;20121;-79
2023/02/25 06:58:40;;;;;;;0.20;0.20;;;;;;;;;;4985241;28;20386;-78
2023/02/25 07:01:09;;;;;;;0.25;0.20;;;;;;;;;;4993107;28;20367;-78
2023/02/25 07:03:36;;;;;;;0.20;0.20;;;;;;;;;;4980056;28;20033;-77
2023/02/25 07:06:02;;;;;;;0.10;0.10;;;;;;;;;;4989410;28;21825;-78
2023/02/25 07:08:28;;;;;;;0.52;0.25;;;;;;;;;;4985373;28;20113;-78
2023/02/25 07:10:53;;;;;;;0.20;0.15;;;;;;;;;;4985599;28;20087;-78
2023/02/25 07:13:20;;;;;;;0.20;0.20;;;;;;;;;;4976245;28;20022;-79
2023/02/25 07:15:46;;;;;;;0.25;0.25;;;;;;;;;;4978675;28;20026;-77
2023/02/25 07:18:12;;;;;;;0.20;0.20;;;;;;;;;;4985257;28;20049;-77
2023/02/25 07:20:38;;;;;;;0.10;0.10;;;;;;;;;;4980451;28;20114;-78
2023/02/25 07:23:05;;;;;;;0.35;0.20;;;;;;;;;;4988950;28;20014;-79
2023/02/25 07:25:31;;;;;;;0.20;0.20;;;;;;;;;;4986187;28;20034;-78
2023/02/25 07:27:57;;;;;;;0.30;0.30;;;;;;;;;;4985719;28;20033;-77
2023/02/25 07:30:23;;;;;;;0.35;0.20;;;;;;;;;;4986426;28;20030;-78
2023/02/25 07:32:49;;;;;;;0.70;0.25;;;;;;;;;;4989036;28;20022;-78
2023/02/25 07:35:15;;;;;;;0.20;0.20;;;;;;;;;;4990202;28;20038;-78
2023/02/25 07:37:41;;;;;;;0.20;0.20;;;;;;;;;;4981488;28;20541;-77
2023/02/25 07:40:11;;;;;;;0.30;0.28;;;;;;;;;;4985803;28;20033;-77
2023/02/25 07:42:38;;;;;;;0.25;0.25;;;;;;;;;;4983601;28;20036;-77
2023/02/25 07:45:04;;;;;;;0.10;0.10;;;;;;;;;;4984518;28;20058;-78
2023/02/25 07:47:30;;;;;;;0.10;0.10;;;;;;;;;;4989257;28;20034;-78
2023/02/25 07:49:56;;;;;;;0.20;0.20;;;;;;;;;;4987184;28;20032;-77
2023/02/25 07:52:22;;;;;;;0.00;0.00;;;;;;;;;;4985237;28;20023;-78
2023/02/25 07:54:48;;;;;;;0.20;0.20;;;;;;;;;;4983163;28;20085;-80
2023/02/25 07:57:14;;;;;;;0.20;0.20;;;;;;;;;;4981520;28;20504;-77
2023/02/25 07:59:40;;;;;;;0.22;0.20;;;;;;;;;;4985452;28;20034;-77
2023/02/25 08:02:09;;;;;;;0.10;0.10;;;;;;;;;;4986290;28;20033;-77
2023/02/25 08:04:35;;;;;;;0.10;0.10;;;;;;;;;;4979775;28;20030;-77
2023/02/25 08:07:01;;;;;;;0.10;0.10;;;;;;;;;;4978939;28;20493;-79
2023/02/25 08:09:27;;;;;;;0.10;0.10;;;;;;;;;;4980379;28;20037;-83
2023/02/25 08:11:53;;;;;;;0.10;0.10;;;;;;;;;;4981674;28;20038;-79
2023/02/25 08:14:20;;;;;;;0.10;0.10;;;;;;;;;;4985069;28;20057;-78
2023/02/25 08:16:46;;;;;;;0.10;0.10;;;;;;;;;;4982895;28;20493;-83
2023/02/25 08:19:12;;;;;;;0.98;0.43;;;;;;;;;;4985724;28;20498;-81
2023/02/25 08:21:39;;;;;;;0.10;0.10;;;;;;;;;;4989363;28;20054;-81
2023/02/25 08:24:05;;;;;;;0.10;0.10;;;;;;;;;;4985738;28;20053;-79
2023/02/25 08:26:31;;;;;;;0.30;0.30;;;;;;;;;;4991224;28;20237;-82
2023/02/25 08:28:58;;;;;;;0.00;0.00;;;;;;;;;;4984946;28;20033;-81
2023/02/25 08:31:24;;;;;;;0.20;0.20;;;;;;;;;;4988020;28;20025;-80
2023/02/25 08:33:51;;;;;;;0.10;0.10;;;;;;;;;;4991800;28;20432;-79
2023/02/25 08:36:37;;;;;;;0.25;0.13;;;;;;;;;;4989306;28;20778;-81
2023/02/25 08:39:03;;;;;;;0.20;0.20;;;;;;;;;;4988483;28;20038;-82
2023/02/25 08:41:29;;;;;;;0.20;0.20;;;;;;;;;;4985232;28;20038;-80
2023/02/25 08:43:56;;;;;;;0.25;0.10;;;;;;;;;;4985981;28;20038;-79
2023/02/25 08:46:25;;;;;;;0.10;0.10;;;;;;;;;;4986663;28;20035;-74
2023/02/25 08:48:52;;;;;;;0.45;0.28;;;;;;;;;;4981626;28;20509;-75
2023/02/25 08:51:19;;;;;;;0.30;0.20;;;;;;;;;;4986452;28;20030;-75
2023/02/25 08:53:45;;;;;;;0.10;0.10;;;;;;;;;;4984562;28;20664;-74
2023/02/25 08:56:13;;;;;;;0.40;0.20;;;;;;;;;;4980952;28;20035;-76
2023/02/25 08:58:39;;;;;;;1.13;0.15;;;;;;;;;;4978207;28;20173;-74
2023/02/25 09:01:12;;;;;;;0.55;0.30;;;;;;;;;;4987752;28;20541;-73
2023/02/25 09:03:39;;;;;;;0.20;0.10;;;;;;;;;;4987847;28;20077;-74
2023/02/25 09:06:05;;;;;;;1.52;0.40;;;;;;;;;;4986499;28;20039;-74
2023/02/25 09:08:31;;;;;;;0.60;0.20;;;;;;;;;;4986994;28;20027;-73
2023/02/25 09:10:57;;;;;;;0.95;0.40;;;;;;;;;;4989029;28;20539;-73
2023/02/25 09:13:23;;;;;;;1.02;0.63;;;;;;;;;;4986128;28;20026;-74
2023/02/25 09:15:56;;;;;;;0.32;0.30;;;;;;;;;;4987441;28;20030;-73
2023/02/25 09:18:22;;;;;;;2.35;0.22;;;;;;;;;;4987767;28;20438;-74
2023/02/25 09:20:51;;;;;;;0.65;0.20;;;;;;;;;;4987792;28;20022;-74
2023/02/25 09:23:17;;;;;;;0.22;0.22;;;;;;;;;;4989836;28;20030;-74
2023/02/25 09:25:44;;;;;;;0.70;0.40;;;;;;;;;;4984942;28;20168;-74
2023/02/25 09:28:10;;;;;;;0.65;0.40;;;;;;;;;;4987325;28;20030;-74
2023/02/25 09:30:36;;;;;;;0.08;0.08;;;;;;;;;;4985426;28;20125;-75
2023/02/25 09:33:06;;;;;;;0.20;0.20;;;;;;;;;;4989633;28;20121;-74
2023/02/25 09:35:35;;;;;;;0.80;0.55;;;;;;;;;;4986655;28;20117;-74
2023/02/25 09:38:03;;;;;;;0.32;0.10;;;;;;;;;;4991649;28;20081;-74
2023/02/25 09:40:29;;;;;;;0.85;0.20;;;;;;;;;;4989377;28;20026;-74
2023/02/25 09:43:15;;;;;;;0.30;0.30;;;;;;;;;;4983629;28;20042;-74
2023/02/25 09:45:46;;;;;;;0.20;0.20;;;;;;;;;;4989241;28;20050;-74
2023/02/25 09:48:17;;;;;;;3.40;0.30;;;;;;;;;;4989385;28;20035;-75
2023/02/25 09:50:46;;;;;;;2.28;0.20;;;;;;;;;;4989199;28;20031;-74
2023/02/25 09:53:23;;;;;;;0.13;0.13;;;;;;;;;;4983513;28;20657;-74
2023/02/25 09:55:50;;;;;;;0.38;0.38;;;;;;;;;;4983992;28;20090;-74
2023/02/25 09:58:28;;;;;;;0.30;0.30;;;;;;;;;;4989142;28;20030;-74
2023/02/25 10:01:04;;;;;;;1.05;0.52;;;;;;;;;;4989356;28;20027;-74
2023/02/25 10:03:40;;;;;;;4.30;0.60;;;;;;;;;;4984861;28;20041;-74
2023/02/25 10:06:19;;;;;;;0.28;0.17;;;;;;;;;;4953397;28;996154;-74
2023/02/25 10:09:01;;;;;;;0.20;0.20;;;;;;;;;;4989373;28;20125;-74
2023/02/25 10:11:30;;;;;;;2.15;0.20;;;;;;;;;;4987859;28;20087;-74
2023/02/25 10:14:02;;;;;;;0.82;0.60;;;;;;;;;;4986074;28;20113;-74
2023/02/25 10:16:28;;;;;;;;;;;;;;;;;;4987995;28;20034;-74
2023/02/25 10:19:02;;;;;;;0.40;0.40;;;;;;;;;;4988164;28;20410;-74
2023/02/25 10:21:45;;;;;;;0.20;0.20;;;;;;;;;;4989788;28;20031;-74
2023/02/25 10:24:23;;;;;;;0.20;0.20;;;;;;;;;;4988131;28;20489;-75
2023/02/25 10:26:55;;;;;;;0.65;0.28;;;;;;;;;;4988193;28;20076;-74
2023/02/25 10:29:27;;;;;;;0.47;0.40;;;;;;;;;;4987322;28;20023;-74
2023/02/25 10:31:55;;;;;;;0.20;0.20;;;;;;;;;;4988148;28;20038;-75
2023/02/25 10:34:24;;;;;;;0.32;0.30;;;;;;;;;;4989446;28;20389;-74
2023/02/25 10:36:58;;;;;;;0.22;0.22;;;;;;;;;;4989435;28;20485;-74
2023/02/25 10:39:25;;;;;;;0.20;0.20;;;;;;;;;;4988069;28;20495;-74
2023/02/25 10:41:51;;;;;;;0.30;0.30;;;;;;;;;;4985458;28;20031;-74
2023/02/25 10:44:17;;;;;;;0.50;0.38;;;;;;;;;;4988592;28;20109;-74
2023/02/25 10:46:53;;;;;;;0.13;0.13;;;;;;;;;;4987751;28;20559;-74
2023/02/25 10:49:24;;;;;;;0.52;0.28;;;;;;;;;;4988545;28;20030;-74
2023/02/25 10:51:59;;;;;;;0.20;0.20;;;;;;;;;;4987511;28;20031;-74
2023/02/25 10:54:25;;;;;;;0.28;0.28;;;;;;;;;;4988611;28;20073;-74
2023/02/25 10:56:52;;;;;;;0.38;0.25;;;;;;;;;;4986757;28;20034;-74
2023/02/25 10:59:32;;;;;;;0.45;0.45;;;;;;;;;;4984630;28;20048;-74
2023/02/25 11:01:59;;;;;;;0.20;0.20;;;;;;;;;;4986780;28;20424;-73
2023/02/25 11:04:29;;;;;;;0.70;0.20;;;;;;;;;;4989082;28;20058;-74
2023/02/25 11:06:55;;;;;;;0.55;0.20;;;;;;;;;;4985056;28;20049;-73
2023/02/25 11:09:21;;;;;;;0.20;0.20;;;;;;;;;;4985551;28;20035;-73
2023/02/25 11:11:54;;;;;;;0.30;0.30;;;;;;;;;;4984954;28;20382;-77
2023/02/25 11:14:26;;;;;;;0.22;0.22;;;;;;;;;;4988625;28;20386;-77
2023/02/25 11:17:00;;;;;;;0.30;0.30;;;;;;;;;;4987669;28;20045;-76
2023/02/25 11:19:31;;;;;;;1.45;0.40;;;;;;;;;;4986752;28;20116;-77
2023/02/25 11:21:59;;;;;;;0.20;0.20;;;;;;;;;;4986111;28;20113;-77
2023/02/25 11:24:33;;;;;;;0.20;0.20;;;;;;;;;;4987701;28;20039;-77
2023/02/25 11:27:19;;;;;;;2.17;0.40;;;;;;;;;;4986831;28;20037;-77
2023/02/25 11:29:45;;;;;;;0.25;0.20;;;;;;;;;;4970842;28;20034;-78
2023/02/25 11:32:23;;;;;;;0.30;0.30;;;;;;;;;;4985115;28;20022;-78
2023/02/25 11:34:51;;;;;;;0.90;0.30;;;;;;;;;;4978435;28;20051;-78
2023/02/25 11:37:36;;;;;;;0.20;0.20;;;;;;;;;;4984143;28;20477;-77
2023/02/25 11:40:18;;;;;;;0.10;0.10;;;;;;;;;;4986913;28;20041;-77
2023/02/25 11:42:58;;;;;;;0.40;0.40;;;;;;;;;;4983495;28;20026;-78
2023/02/25 11:45:25;;;;;;;0.20;0.20;;;;;;;;;;4977582;28;20030;-77
2023/02/25 11:47:51;;;;;;;0.32;0.30;;;;;;;;;;4986125;28;20027;-77
2023/02/25 11:50:19;;;;;;;0.20;0.20;;;;;;;;;;4985597;28;20425;-77
2023/02/25 11:52:56;;;;;;;0.15;0.10;;;;;;;;;;4982812;28;20034;-77
2023/02/25 11:55:36;;;;;;;0.20;0.20;;;;;;;;;;4984990;28;20045;-78
2023/02/25 11:58:22;;;;;;;0.20;0.20;;;;;;;;;;4987162;28;20113;-78
2023/02/25 12:01:00;;;;;;;0.32;0.20;;;;;;;;;;4987128;28;20042;-78
2023/02/25 12:03:35;;;;;;;0.15;0.15;;;;;;;;;;4986440;28;20508;-77
2023/02/25 12:06:23;;;;;;;0.10;0.10;;;;;;;;;;4988040;28;20222;-77
2023/02/25 12:09:03;;;;;;;0.20;0.20;;;;;;;;;;4983779;28;20035;-77
2023/02/25 12:11:42;;;;;;;0.30;0.30;;;;;;;;;;4988110;28;20134;-77
2023/02/25 12:14:27;;;;;;;0.28;0.28;;;;;;;;;;4986364;28;20031;-77
2023/02/25 12:17:12;;;;;;;0.20;0.20;;;;;;;;;;4986808;28;20456;-77
2023/02/25 12:19:56;;;;;;;0.28;0.28;;;;;;;;;;4987146;28;20132;-77
2023/02/25 12:22:28;;;;;;;0.10;0.10;;;;;;;;;;4988095;28;20030;-77
2023/02/25 12:25:13;;;;;;;0.20;0.20;;;;;;;;;;4986689;28;20040;-76
2023/02/25 12:27:38;;;;;;;0.43;0.35;;;;;;;;;;4986490;28;20516;-77
2023/02/25 12:30:29;;;;;;;0.57;0.32;;;;;;;;;;4988356;28;20019;-76
2023/02/25 12:32:58;;;;;;;0.10;0.10;;;;;;;;;;4985730;28;20474;-78
2023/02/25 12:35:43;;;;;;;0.20;0.20;;;;;;;;;;4987804;28;20018;-78
2023/02/25 12:38:12;;;;;;;0.10;0.10;;;;;;;;;;4975167;28;20030;-77
2023/02/25 12:40:45;;;;;;;0.20;0.20;;;;;;;;;;4980332;28;20045;-77
2023/02/25 12:43:23;;;;;;;0.40;0.40;;;;;;;;;;4985813;28;20084;-77
2023/02/25 12:45:56;;;;;;;0.20;0.20;;;;;;;;;;4986936;28;20027;-77
2023/02/25 12:48:31;;;;;;;0.20;0.20;;;;;;;;;;4986323;28;20059;-76
2023/02/25 12:51:16;;;;;;;0.15;0.15;;;;;;;;;;4986740;28;20109;-77
2023/02/25 12:54:20;;;;;;;0.20;0.20;;;;;;;;;;4985357;28;20075;-77
2023/02/25 12:56:55;;;;;;;0.30;0.30;;;;;;;;;;4894153;29;20079;-77
2023/02/25 12:59:27;;;;;;;0.77;0.30;;;;;;;;;;4886128;29;20184;-76
2023/02/25 13:02:17;;;;;;;0.10;0.10;;;;;;;;;;4945998;28;20039;-76
2023/02/25 13:04:46;;;;;;;0.27;0.27;;;;;;;;;;4987878;28;20393;-77
2023/02/25 13:07:31;;;;;;;0.13;0.13;;;;;;;;;;4980838;28;22852;-77
2023/02/25 13:10:15;;;;;;;0.20;0.20;;;;;;;;;;4985583;28;20030;-77
2023/02/25 13:12:47;;;;;;;0.28;0.28;;;;;;;;;;4987245;28;20270;-77
2023/02/25 13:15:23;;;;;;;0.10;0.10;;;;;;;;;;4990410;28;20515;-79
2023/02/25 13:18:02;;;;;;;0.28;0.28;;;;;;;;;;4989938;28;20037;-79
2023/02/25 13:20:36;;;;;;;0.63;0.47;;;;;;;;;;4987011;28;20441;-79
2023/02/25 13:23:20;;;;;;;0.32;0.20;;;;;;;;;;4986070;28;20030;-79
2023/02/25 13:25:46;;;;;;;0.20;0.20;;;;;;;;;;4984006;28;20520;-78
2023/02/25 13:28:44;;;;;;;0.32;0.30;;;;;;;;;;4989324;28;20030;-77
2023/02/25 13:31:22;;;;;;;0.10;0.10;;;;;;;;;;4987729;28;20018;-78
2023/02/25 13:34:02;;;;;;;0.43;0.25;;;;;;;;;;4981270;28;20025;-77
2023/02/25 13:36:47;;;;;;;0.52;0.40;;;;;;;;;;4991856;28;20465;-78
2023/02/25 13:39:19;;;;;;;0.80;0.30;;;;;;;;;;4974527;28;20461;-77
2023/02/25 13:41:47;;;;;;;0.10;0.10;;;;;;;;;;4987225;28;20038;-77
2023/02/25 13:44:41;;;;;;;0.20;0.20;;;;;;;;;;4983908;28;20096;-77
2023/02/25 13:47:13;;;;;;;0.40;0.40;;;;;;;;;;4992197;28;20034;-77
2023/02/25 13:50:05;;;;;;;0.52;0.30;;;;;;;;;;4988144;28;20105;-76
2023/02/25 13:52:41;;;;;;;0.17;0.17;;;;;;;;;;4982347;28;20027;-79
2023/02/25 13:55:23;;;;;;;1.23;0.30;;;;;;;;;;4988050;28;20029;-79
2023/02/25 13:58:19;;;;;;;0.20;0.20;;;;;;;;;;4979184;28;20026;-79
2023/02/25 14:00:47;;;;;;;0.20;0.20;;;;;;;;;;4990424;28;20026;-79
2023/02/25 14:03:33;;;;;;;0.35;0.15;;;;;;;;;;4988615;28;20441;-79
2023/02/25 14:06:02;;;;;;;0.20;0.20;;;;;;;;;;4977739;28;20769;-79
2023/02/25 14:08:40;;;;;;;0.10;0.10;;;;;;;;;;4989960;28;20498;-79
2023/02/25 14:11:18;;;;;;;1.30;0.30;;;;;;;;;;4988370;28;20030;-79
2023/02/25 14:14:05;;;;;;;0.20;0.20;;;;;;;;;;4989548;28;20037;-79
2023/02/25 14:16:37;;;;;;;0.20;0.15;;;;;;;;;;4985550;28;20026;-79
2023/02/25 14:19:09;;;;;;;0.10;0.10;;;;;;;;;;4984314;28;20030;-80
2023/02/25 14:21:52;;;;;;;1.05;0.20;;;;;;;;;;4988411;28;20096;-79
2023/02/25 14:24:24;;;;;;;0.10;0.10;;;;;;;;;;4981358;28;20036;-80
2023/02/25 14:26:52;;;;;;;0.30;0.30;;;;;;;;;;4986547;28;20052;-79
2023/02/25 14:29:37;;;;;;;0.10;0.10;;;;;;;;;;4987538;28;20034;-78
2023/02/25 14:32:16;;;;;;;0.10;0.10;;;;;;;;;;4984045;28;20110;-79
2023/02/25 14:34:54;;;;;;;0.40;0.28;;;;;;;;;;4987314;28;20130;-79
2023/02/25 14:37:37;;;;;;;0.10;0.10;;;;;;;;;;4968753;28;20053;-78
2023/02/25 14:40:22;;;;;;;0.57;0.45;;;;;;;;;;4979113;28;20639;-79
2023/02/25 14:42:48;;;;;;;0.17;0.17;;;;;;;;;;4974370;28;20218;-79
2023/02/25 14:45:13;;;;;;;0.38;0.38;;;;;;;;;;4985715;28;22375;-78
2023/02/25 14:47:45;;;;;;;0.20;0.20;;;;;;;;;;4994116;28;20034;-78
2023/02/25 14:50:13;;;;;;;0.22;0.20;;;;;;;;;;4987203;28;20022;-78
2023/02/25 14:52:56;;;;;;;0.20;0.20;;;;;;;;;;4986263;28;20038;-79
2023/02/25 14:55:32;;;;;;;0.30;0.30;;;;;;;;;;4987409;28;20548;-79
2023/02/25 14:58:22;;;;;;;0.43;0.30;;;;;;;;;;4980292;28;20392;-79
2023/02/25 15:01:02;;;;;;;0.20;0.20;;;;;;;;;;4988527;28;20022;-79
2023/02/25 15:03:35;;;;;;;0.20;0.20;;;;;;;;;;4987978;28;20121;-78